createdAt,value
2018-09-20T00:00:12.256Z,20.27
2018-09-20T00:02:41.138Z,20.39
2018-09-20T00:05:10.011Z,20.50
2018-09-20T00:07:38.895Z,20.62
2018-09-20T00:10:07.830Z,20.77
2018-09-20T00:12:36.659Z,20.92
2018-09-20T00:15:05.990Z,21.11
2018-09-20T00:17:34.783Z,21.07
2018-09-20T00:20:03.656Z,21.22
2018-09-20T00:22:32.878Z,21.14
2018-09-20T00:25:03.372Z,21.11
2018-09-20T00:27:32.378Z,21.13
2018-09-20T00:30:01.144Z,21.17
2018-09-20T00:32:29.883Z,21.18
2018-09-20T00:34:58.759Z,21.20
2018-09-20T00:37:27.586Z,21.24
2018-09-20T00:39:56.406Z,21.26
2018-09-20T00:42:25.143Z,21.27
2018-09-20T00:44:54.865Z,21.26
2018-09-20T00:47:23.694Z,21.22
2018-09-20T00:49:52.582Z,21.22
2018-09-20T00:52:21.439Z,21.14
2018-09-20T00:54:50.699Z,21.13
2018-09-20T00:57:19.484Z,21.08
2018-09-20T00:59:48.359Z,21.02
2018-09-20T01:02:17.126Z,20.87
2018-09-20T01:04:46.105Z,20.77
2018-09-20T01:07:15.050Z,20.61
2018-09-20T01:09:44.378Z,20.55
2018-09-20T01:12:13.280Z,20.40
2018-09-20T01:14:42.025Z,20.27
2018-09-20T01:17:11.031Z,20.12
2018-09-20T01:19:39.848Z,19.99
2018-09-20T01:22:09.090Z,19.84
2018-09-20T01:24:37.939Z,19.69
2018-09-20T01:27:06.898Z,19.63
2018-09-20T01:29:37.747Z,19.53
2018-09-20T01:32:06.659Z,19.45
2018-09-20T01:34:35.831Z,19.44
2018-09-20T01:37:04.579Z,19.42
2018-09-20T01:39:33.536Z,19.45
2018-09-20T01:42:02.788Z,19.47
2018-09-20T01:44:32.171Z,19.44
2018-09-20T01:47:01.066Z,19.38
2018-09-20T01:49:30.108Z,19.36
2018-09-20T01:51:59.011Z,19.33
2018-09-20T01:54:27.941Z,19.33
2018-09-20T01:56:56.830Z,19.32
2018-09-20T01:59:25.721Z,19.31
2018-09-20T02:01:54.598Z,19.27
2018-09-20T02:04:23.455Z,19.21
2018-09-20T02:06:52.411Z,19.13
2018-09-20T02:09:21.263Z,19.04
2018-09-20T02:11:50.308Z,18.98
2018-09-20T02:14:19.266Z,18.93
2018-09-20T02:16:48.158Z,18.92
2018-09-20T02:19:17.060Z,18.90
2018-09-20T02:21:45.923Z,18.82
2018-09-20T02:24:14.904Z,18.74
2018-09-20T02:26:43.840Z,18.65
2018-09-20T02:29:13.542Z,18.59
2018-09-20T02:31:42.387Z,18.54
2018-09-20T02:34:11.340Z,18.48
2018-09-20T02:36:40.247Z,18.38
2018-09-20T02:39:09.638Z,18.27
2018-09-20T02:41:39.019Z,18.19
2018-09-20T02:44:07.840Z,18.16
2018-09-20T02:46:36.732Z,18.15
2018-09-20T02:49:05.644Z,18.12
2018-09-20T02:51:34.613Z,18.09
2018-09-20T02:54:03.403Z,18.06
2018-09-20T02:56:32.241Z,17.99
2018-09-20T02:59:02.297Z,17.99
2018-09-20T03:01:31.498Z,17.98
2018-09-20T03:04:00.335Z,18.01
2018-09-20T03:06:29.259Z,18.01
2018-09-20T03:08:58.209Z,17.91
2018-09-20T03:11:27.096Z,17.55
2018-09-20T03:13:55.971Z,17.39
2018-09-20T03:16:24.903Z,17.46
2018-09-20T03:18:53.722Z,17.62
2018-09-20T03:21:22.574Z,17.74
2018-09-20T03:23:51.796Z,17.73
2018-09-20T03:26:21.130Z,17.69
2018-09-20T03:28:50.106Z,17.61
2018-09-20T03:31:19.140Z,17.56
2018-09-20T03:33:48.256Z,17.51
2018-09-20T03:36:17.296Z,17.55
2018-09-20T03:38:46.204Z,17.54
2018-09-20T03:41:15.063Z,17.61
2018-09-20T03:43:43.872Z,17.66
2018-09-20T03:46:12.829Z,17.70
2018-09-20T03:48:41.652Z,17.67
2018-09-20T03:51:10.531Z,17.70
2018-09-20T03:53:39.261Z,17.68
2018-09-20T03:56:08.195Z,17.61
2018-09-20T03:58:37.212Z,17.58
2018-09-20T04:01:06.245Z,17.53
2018-09-20T04:03:35.147Z,17.50
2018-09-20T04:06:04.020Z,17.46
2018-09-20T04:08:41.139Z,17.43
2018-09-20T04:11:10.095Z,17.44
2018-09-20T04:13:38.918Z,17.30
2018-09-20T04:16:08.463Z,17.15
2018-09-20T04:18:37.338Z,17.18
2018-09-20T04:21:06.345Z,17.18
2018-09-20T04:23:35.340Z,17.23
2018-09-20T04:26:04.208Z,17.24
2018-09-20T04:28:33.089Z,17.22
2018-09-20T04:31:01.921Z,17.18
2018-09-20T04:33:30.851Z,17.15
2018-09-20T04:35:59.635Z,17.10
2018-09-20T04:38:28.616Z,17.07
2018-09-20T04:40:57.886Z,17.05
2018-09-20T04:43:26.829Z,17.06
2018-09-20T04:45:55.744Z,17.07
2018-09-20T04:48:25.317Z,17.07
2018-09-20T04:50:54.241Z,17.11
2018-09-20T04:53:23.208Z,17.13
2018-09-20T04:55:52.189Z,17.15
2018-09-20T04:58:44.511Z,17.18
2018-09-20T05:01:13.396Z,17.20
2018-09-20T05:03:42.833Z,17.29
2018-09-20T05:06:11.930Z,17.40
2018-09-20T05:08:40.904Z,17.46
2018-09-20T05:11:09.631Z,17.58
2018-09-20T05:13:38.512Z,17.71
2018-09-20T05:16:07.667Z,17.79
2018-09-20T05:18:36.470Z,17.98
2018-09-20T05:21:05.481Z,18.17
2018-09-20T05:23:34.445Z,18.23
2018-09-20T05:26:03.306Z,18.34
2018-09-20T05:28:32.238Z,18.59
2018-09-20T05:31:01.055Z,18.81
2018-09-20T05:33:29.977Z,19.14
2018-09-20T05:35:59.357Z,19.67
2018-09-20T05:38:28.216Z,20.16
2018-09-20T05:40:57.194Z,20.71
2018-09-20T05:43:26.128Z,21.30
2018-09-20T05:45:55.407Z,21.98
2018-09-20T05:48:25.559Z,22.62
2018-09-20T05:50:54.388Z,23.03
2018-09-20T05:53:23.186Z,23.25
2018-09-20T05:55:52.067Z,23.69
2018-09-20T05:58:21.570Z,24.02
2018-09-20T06:00:50.508Z,24.11
2018-09-20T06:03:19.322Z,23.77
2018-09-20T06:05:48.164Z,23.37
2018-09-20T06:08:17.063Z,23.49
2018-09-20T06:10:45.886Z,23.87
2018-09-20T06:13:14.881Z,24.08
2018-09-20T06:15:43.790Z,24.60
2018-09-20T06:18:12.696Z,25.11
2018-09-20T06:20:41.620Z,25.67
2018-09-20T06:23:10.631Z,26.03
2018-09-20T06:25:39.629Z,26.70
2018-09-20T06:28:08.420Z,27.46
2018-09-20T06:30:37.379Z,28.01
2018-09-20T06:33:43.167Z,28.27
2018-09-20T06:36:12.052Z,28.75
2018-09-20T06:38:40.826Z,28.77
2018-09-20T06:41:09.702Z,28.48
2018-09-20T06:43:38.441Z,28.66
2018-09-20T06:46:07.325Z,28.95
2018-09-20T06:51:27.492Z,29.20
2018-09-20T06:53:56.922Z,29.38
2018-09-20T06:56:26.219Z,29.45
2018-09-20T06:58:54.945Z,29.71
2018-09-20T07:01:23.653Z,29.67
2018-09-20T07:03:53.896Z,29.40
2018-09-20T07:06:22.914Z,29.42
2018-09-20T07:08:51.953Z,29.04
2018-09-20T07:11:21.533Z,28.89
2018-09-20T07:13:50.977Z,29.35
2018-09-20T07:16:20.193Z,29.69
2018-09-20T07:18:49.279Z,29.35
2018-09-20T07:21:18.115Z,29.82
2018-09-20T07:23:47.177Z,30.79
2018-09-20T07:26:17.062Z,31.18
2018-09-20T07:28:46.199Z,30.54
2018-09-20T07:31:15.135Z,30.67
2018-09-20T07:33:44.061Z,30.77
2018-09-20T07:36:13.096Z,31.12
2018-09-20T07:38:42.052Z,31.54
2018-09-20T07:41:11.161Z,30.86
2018-09-20T07:43:40.254Z,30.09
2018-09-20T07:46:09.164Z,29.90
2018-09-20T07:48:38.040Z,30.02
2018-09-20T07:51:07.085Z,30.67
2018-09-20T07:53:36.639Z,31.23
2018-09-20T07:56:05.623Z,31.11
2018-09-20T07:58:35.213Z,31.46
2018-09-20T08:01:05.793Z,31.69
2018-09-20T08:03:35.140Z,31.56
2018-09-20T08:06:09.872Z,32.13
2018-09-20T08:08:39.659Z,32.15
2018-09-20T08:11:10.902Z,32.78
2018-09-20T08:13:40.110Z,32.81
2018-09-20T08:16:11.919Z,32.59
2018-09-20T08:18:41.557Z,33.21
2018-09-20T08:21:11.362Z,33.50
2018-09-20T08:23:40.647Z,33.87
2018-09-20T08:26:10.615Z,33.82
2018-09-20T08:28:39.527Z,34.07
2018-09-20T08:31:08.644Z,34.16
2018-09-20T08:33:37.792Z,34.19
2018-09-20T08:36:10.197Z,33.51
2018-09-20T08:38:39.532Z,32.64
2018-09-20T08:41:11.981Z,33.05
2018-09-20T08:43:42.382Z,33.40
2018-09-20T08:46:11.913Z,33.81
2018-09-20T08:48:40.946Z,33.62
2018-09-20T08:51:10.172Z,33.93
2018-09-20T08:53:38.948Z,33.96
2018-09-20T08:56:08.003Z,33.60
2018-09-20T08:58:36.930Z,33.49
2018-09-20T09:01:06.387Z,33.86
2018-09-20T09:03:35.312Z,34.44
2018-09-20T09:06:04.648Z,34.86
2018-09-20T09:08:34.165Z,35.06
2018-09-20T09:11:03.311Z,34.51
2018-09-20T09:13:32.149Z,35.36
2018-09-20T09:16:01.068Z,35.53
2018-09-20T09:18:30.159Z,35.82
2018-09-20T09:20:59.057Z,35.22
2018-09-20T09:23:29.019Z,34.38
2018-09-20T09:25:58.035Z,33.87
2018-09-20T09:28:28.568Z,33.91
2018-09-20T09:30:58.317Z,33.39
2018-09-20T09:33:29.142Z,33.39
2018-09-20T09:35:58.229Z,33.77
2018-09-20T09:38:27.955Z,33.92
2018-09-20T09:40:56.843Z,34.26
2018-09-20T09:43:26.098Z,33.53
2018-09-20T09:45:56.133Z,33.31
2018-09-20T09:48:26.066Z,33.83
2018-09-20T09:50:55.053Z,34.15
2018-09-20T09:53:24.410Z,33.91
2018-09-20T09:55:53.367Z,33.87
2018-09-20T09:58:22.487Z,34.02
2018-09-20T10:00:51.439Z,34.12
2018-09-20T10:03:20.339Z,34.36
2018-09-20T10:05:50.296Z,34.95
2018-09-20T10:08:19.818Z,35.14
2018-09-20T10:10:48.828Z,34.91
2018-09-20T10:13:17.929Z,34.53
2018-09-20T10:15:47.153Z,34.82
2018-09-20T10:18:16.067Z,35.03
2018-09-20T10:20:45.157Z,34.90
2018-09-20T10:23:15.522Z,34.20
2018-09-20T10:25:44.542Z,33.47
2018-09-20T10:28:16.081Z,33.19
2018-09-20T10:30:47.982Z,33.42
2018-09-20T10:33:19.171Z,33.85
2018-09-20T10:35:48.259Z,33.63
2018-09-20T10:38:17.418Z,33.70
2018-09-20T10:40:47.799Z,33.99
2018-09-20T10:43:16.772Z,34.36
2018-09-20T10:45:45.967Z,34.86
2018-09-20T10:48:14.920Z,34.40
2018-09-20T10:50:43.926Z,34.53
2018-09-20T10:53:13.085Z,34.28
2018-09-20T10:55:42.036Z,34.49
2018-09-20T10:58:11.131Z,34.80
2018-09-20T11:00:40.175Z,35.50
2018-09-20T11:03:09.322Z,35.70
2018-09-20T11:05:38.140Z,35.48
2018-09-20T11:08:07.961Z,35.20
2018-09-20T11:10:36.832Z,34.86
2018-09-20T11:13:06.058Z,34.63
2018-09-20T11:15:35.047Z,34.95
2018-09-20T11:18:04.005Z,35.15
2018-09-20T11:20:33.480Z,34.91
2018-09-20T11:23:03.928Z,34.23
2018-09-20T11:25:32.858Z,33.63
2018-09-20T11:28:01.700Z,33.75
2018-09-20T11:30:30.673Z,33.63
2018-09-20T11:32:59.527Z,33.92
2018-09-20T11:35:28.411Z,32.88
2018-09-20T11:37:57.998Z,32.90
2018-09-20T11:40:27.154Z,33.41
2018-09-20T11:42:56.127Z,33.71
2018-09-20T11:45:25.141Z,33.63
2018-09-20T11:47:53.989Z,33.30
2018-09-20T11:50:22.820Z,32.82
2018-09-20T11:52:51.755Z,32.85
2018-09-20T11:55:20.919Z,32.72
2018-09-20T11:57:51.438Z,32.73
2018-09-20T12:00:22.011Z,32.93
2018-09-20T12:02:52.719Z,32.59
2018-09-20T12:05:22.428Z,32.43
2018-09-20T12:07:51.445Z,32.22
2018-09-20T12:10:20.740Z,31.94
2018-09-20T12:12:49.702Z,32.11
2018-09-20T12:15:18.635Z,31.69
2018-09-20T12:17:47.466Z,31.53
2018-09-20T12:20:16.522Z,31.57
2018-09-20T12:22:45.455Z,31.96
2018-09-20T12:25:14.220Z,32.29
2018-09-20T12:27:45.069Z,31.96
2018-09-20T12:30:14.909Z,31.89
2018-09-20T12:32:47.356Z,31.71
2018-09-20T12:35:16.405Z,32.22
2018-09-20T12:37:45.646Z,32.73
2018-09-20T12:40:14.718Z,32.95
2018-09-20T12:42:45.794Z,33.19
2018-09-20T12:45:14.692Z,33.40
2018-09-20T12:47:43.552Z,33.36
2018-09-20T12:50:13.147Z,32.97
2018-09-20T12:52:41.965Z,32.89
2018-09-20T12:55:11.015Z,33.08
2018-09-20T12:57:43.601Z,32.94
2018-09-20T13:00:12.801Z,32.46
2018-09-20T13:02:41.684Z,32.22
2018-09-20T13:05:10.664Z,32.52
2018-09-20T13:07:39.520Z,32.99
2018-09-20T13:10:08.417Z,33.24
2018-09-20T13:12:37.461Z,33.66
2018-09-20T13:15:10.406Z,33.62
2018-09-20T13:17:39.417Z,33.86
2018-09-20T13:20:12.519Z,33.59
2018-09-20T13:22:42.532Z,33.62
2018-09-20T13:25:12.526Z,33.39
2018-09-20T13:27:41.863Z,33.41
2018-09-20T13:30:11.011Z,32.87
2018-09-20T13:32:40.140Z,33.03
2018-09-20T13:35:09.138Z,33.51
2018-09-20T13:37:38.108Z,33.55
2018-09-20T13:40:07.262Z,33.44
2018-09-20T13:42:36.342Z,33.22
2018-09-20T13:45:05.500Z,32.84
2018-09-20T13:47:36.120Z,32.75
2018-09-20T13:50:05.820Z,33.16
2018-09-20T13:52:35.407Z,33.42
2018-09-20T13:55:04.400Z,33.58
2018-09-20T13:57:33.345Z,33.36
2018-09-20T14:00:02.475Z,33.48
2018-09-20T14:02:31.311Z,33.36
2018-09-20T14:05:00.709Z,33.28
2018-09-20T14:07:29.632Z,32.95
2018-09-20T14:09:59.665Z,33.23
2018-09-20T14:12:28.766Z,33.38
2018-09-20T14:14:58.311Z,33.40
2018-09-20T14:17:27.491Z,32.86
2018-09-20T14:19:56.282Z,32.75
2018-09-20T14:22:25.211Z,32.82
2018-09-20T14:24:54.261Z,32.76
2018-09-20T14:27:23.340Z,33.01
2018-09-20T14:30:08.718Z,32.85
2018-09-20T14:32:46.323Z,32.42
2018-09-20T14:35:15.311Z,32.33
2018-09-20T14:37:44.536Z,32.23
2018-09-20T14:40:13.417Z,32.32
2018-09-20T14:42:42.223Z,32.56
2018-09-20T14:45:11.200Z,32.63
2018-09-20T14:47:40.187Z,32.12
2018-09-20T14:50:09.049Z,32.05
2018-09-20T14:52:38.140Z,32.19
2018-09-20T14:55:07.286Z,32.32
2018-09-20T14:57:36.589Z,32.60
2018-09-20T15:00:05.661Z,32.61
2018-09-20T15:02:34.827Z,32.59
2018-09-20T15:05:03.841Z,32.40
2018-09-20T15:07:32.702Z,32.39
2018-09-20T15:10:01.596Z,32.11
2018-09-20T15:12:31.183Z,32.12
2018-09-20T15:15:00.785Z,32.07
2018-09-20T15:17:29.908Z,31.95
2018-09-20T15:19:59.418Z,31.90
2018-09-20T15:22:29.375Z,31.68
2018-09-20T15:24:58.482Z,31.50
2018-09-20T15:27:28.906Z,31.31
2018-09-20T15:29:57.847Z,31.18
2018-09-20T15:32:26.891Z,31.06
2018-09-20T15:34:57.013Z,31.09
2018-09-20T15:37:25.853Z,31.15
2018-09-20T15:39:54.905Z,31.25
2018-09-20T15:42:23.830Z,31.34
2018-09-20T15:44:53.983Z,31.17
2018-09-20T15:47:25.634Z,31.15
2018-09-20T15:49:54.661Z,31.07
2018-09-20T15:52:24.034Z,31.01
2018-09-20T15:54:53.104Z,30.98
2018-09-20T15:57:22.173Z,30.86
2018-09-20T15:59:51.535Z,30.83
2018-09-20T16:02:20.479Z,30.83
2018-09-20T16:04:49.545Z,30.80
2018-09-20T16:07:18.608Z,30.63
2018-09-20T16:09:47.975Z,30.54
2018-09-20T16:12:17.334Z,30.42
2018-09-20T16:14:47.155Z,30.42
2018-09-20T16:17:15.963Z,30.44
2018-09-20T16:19:44.903Z,30.35
2018-09-20T16:22:13.858Z,30.36
2018-09-20T16:24:42.823Z,30.21
2018-09-20T16:27:11.959Z,30.19
2018-09-20T16:29:44.168Z,30.08
2018-09-20T16:34:56.255Z,29.91
2018-09-20T16:39:34.983Z,29.54
2018-09-20T16:42:05.467Z,29.21
2018-09-20T16:44:34.326Z,29.10
2018-09-20T16:47:03.266Z,29.02
2018-09-20T16:49:32.322Z,28.92
2018-09-20T16:52:01.167Z,28.81
2018-09-20T16:54:30.113Z,28.69
2018-09-20T16:56:58.944Z,28.62
2018-09-20T16:59:28.230Z,28.49
2018-09-20T17:01:57.457Z,28.40
2018-09-20T17:04:30.990Z,28.28
2018-09-20T17:07:00.134Z,28.16
2018-09-20T17:09:29.531Z,28.09
2018-09-20T17:11:58.490Z,27.98
2018-09-20T17:14:27.544Z,27.86
2018-09-20T17:16:56.877Z,27.72
2018-09-20T17:19:26.838Z,27.58
2018-09-20T17:21:56.461Z,27.47
2018-09-20T17:24:25.741Z,27.35
2018-09-20T17:26:55.666Z,27.22
2018-09-20T17:29:25.125Z,27.08
2018-09-20T17:31:54.571Z,26.97
2018-09-20T17:34:25.912Z,26.84
2018-09-20T17:36:56.357Z,26.69
2018-09-20T17:39:27.262Z,26.51
2018-09-20T17:41:57.579Z,26.33
2018-09-20T17:44:26.590Z,26.15
2018-09-20T17:46:58.056Z,26.00
2018-09-20T17:49:27.246Z,25.86
2018-09-20T17:51:56.496Z,25.73
2018-09-20T17:54:25.830Z,25.63
2018-09-20T17:56:55.564Z,25.54
2018-09-20T17:59:24.448Z,25.44
2018-09-20T18:01:53.530Z,25.31
2018-09-20T18:04:22.553Z,25.22
2018-09-20T18:06:52.373Z,25.12
2018-09-20T18:09:21.874Z,25.02
2018-09-20T18:11:52.920Z,24.90
2018-09-20T18:14:23.303Z,24.78
2018-09-20T18:16:53.843Z,24.69
2018-09-20T18:19:23.066Z,24.58
2018-09-20T18:21:57.784Z,24.47
2018-09-20T18:24:26.957Z,24.39
2018-09-20T18:26:56.164Z,24.31
2018-09-20T18:29:25.274Z,24.22
2018-09-20T18:31:55.249Z,24.14
2018-09-20T18:34:24.465Z,24.06
2018-09-20T18:36:55.442Z,23.96
2018-09-20T18:39:25.522Z,23.88
2018-09-20T18:41:56.474Z,23.88
2018-09-20T18:44:26.953Z,23.85
2018-09-20T18:46:56.537Z,23.80
2018-09-20T18:49:25.878Z,23.78
2018-09-20T18:51:56.044Z,23.72
2018-09-20T18:54:25.087Z,23.63
2018-09-20T18:56:54.178Z,23.58
2018-09-20T18:59:27.459Z,23.42
2018-09-20T19:01:56.839Z,23.03
2018-09-20T19:04:25.912Z,23.02
2018-09-20T19:06:55.868Z,22.75
2018-09-20T19:09:25.011Z,22.68
2018-09-20T19:11:54.110Z,22.60
2018-09-20T19:14:23.061Z,22.62
2018-09-20T19:16:52.045Z,22.67
2018-09-20T19:19:21.159Z,22.67
2018-09-20T19:21:54.366Z,22.73
2018-09-20T19:24:25.584Z,22.72
2018-09-20T19:26:55.280Z,22.64
2018-09-20T19:29:24.975Z,22.55
2018-09-20T19:31:55.894Z,22.55
2018-09-20T19:34:27.552Z,22.39
2018-09-20T19:39:50.215Z,22.05
2018-09-20T19:42:19.152Z,21.99
2018-09-20T19:44:49.751Z,21.88
2018-09-20T19:47:20.864Z,21.80
2018-09-20T19:49:50.424Z,21.74
2018-09-20T19:52:19.523Z,21.74
2018-09-20T19:54:48.763Z,21.69
2018-09-20T19:57:18.005Z,21.64
2018-09-20T19:59:47.114Z,21.59
2018-09-20T20:02:16.283Z,21.51
2018-09-20T20:04:45.713Z,21.50
2018-09-20T20:07:15.532Z,21.47
2018-09-20T20:09:44.624Z,21.48
2018-09-20T20:12:14.731Z,21.45
2018-09-20T20:14:46.193Z,21.66
2018-09-20T20:17:17.071Z,21.63
2018-09-20T20:19:46.712Z,21.54
2018-09-20T20:22:18.661Z,21.40
2018-09-20T20:24:48.008Z,21.30
2018-09-20T20:27:17.049Z,21.19
2018-09-20T20:29:46.162Z,21.25
2018-09-20T20:32:15.361Z,21.07
2018-09-20T20:34:46.589Z,21.07
2018-09-20T20:37:15.719Z,21.00
2018-09-20T20:39:46.274Z,20.98
2018-09-20T20:42:16.083Z,20.91
2018-09-20T20:44:45.673Z,20.85
2018-09-20T20:47:14.878Z,20.82
2018-09-20T20:49:44.135Z,20.75
2018-09-20T20:52:13.548Z,20.69
2018-09-20T20:54:42.922Z,20.64
2018-09-20T20:57:12.250Z,20.58
2018-09-20T20:59:41.291Z,20.55
2018-09-20T21:02:11.011Z,20.54
2018-09-20T21:04:40.932Z,20.49
2018-09-20T21:07:10.068Z,20.42
2018-09-20T21:09:39.247Z,20.32
2018-09-20T21:12:08.155Z,20.21
2018-09-20T21:14:39.946Z,20.06
2018-09-20T21:17:12.123Z,19.96
2018-09-20T21:19:41.696Z,19.87
2018-09-20T21:22:10.846Z,19.72
2018-09-20T21:24:40.816Z,19.67
2018-09-20T21:27:10.610Z,19.62
2018-09-20T21:29:42.067Z,19.58
2018-09-20T21:32:11.305Z,19.59
2018-09-20T21:34:40.989Z,19.58
2018-09-20T21:37:10.796Z,19.69
2018-09-20T21:39:40.442Z,19.87
2018-09-20T21:42:14.222Z,19.98
2018-09-20T21:44:44.058Z,20.21
2018-09-20T21:47:13.387Z,20.22
2018-09-20T21:49:42.438Z,20.24
2018-09-20T21:52:12.173Z,20.18
2018-09-20T21:54:43.178Z,20.07
2018-09-20T21:57:13.068Z,19.97
2018-09-20T21:59:43.845Z,19.87
2018-09-20T22:02:14.522Z,19.77
2018-09-20T22:04:43.499Z,19.71
2018-09-20T22:07:12.400Z,19.69
2018-09-20T22:09:41.385Z,19.82
2018-09-20T22:12:11.059Z,19.71
2018-09-20T22:14:41.434Z,19.71
2018-09-20T22:17:10.507Z,19.66
2018-09-20T22:19:39.368Z,19.59
2018-09-20T22:22:08.346Z,19.60
2018-09-20T22:24:37.328Z,19.59
2018-09-20T22:27:06.182Z,19.64
2018-09-20T22:29:35.051Z,19.63
2018-09-20T22:32:03.940Z,19.73
2018-09-20T22:34:32.850Z,19.64
2018-09-20T22:37:01.779Z,19.61
2018-09-20T22:39:30.893Z,19.63
2018-09-20T22:41:59.807Z,19.67
2018-09-20T22:44:28.651Z,19.57
2018-09-20T22:46:57.709Z,19.52
2018-09-20T22:49:26.665Z,19.56
2018-09-20T22:51:55.721Z,19.58
2018-09-20T22:54:24.680Z,19.68
2018-09-20T22:56:53.675Z,19.79
2018-09-20T22:59:22.640Z,19.74
2018-09-20T23:01:52.046Z,19.86
2018-09-20T23:04:21.379Z,19.95
2018-09-20T23:06:51.653Z,19.94
2018-09-20T23:09:20.939Z,20.05
2018-09-20T23:11:50.527Z,20.05
2018-09-20T23:14:19.313Z,19.98
2018-09-20T23:16:49.100Z,19.99
2018-09-20T23:19:18.413Z,19.92
2018-09-20T23:21:48.427Z,19.85
2018-09-20T23:24:18.181Z,19.80
2018-09-20T23:26:47.210Z,19.73
2018-09-20T23:29:22.051Z,19.76
2018-09-20T23:31:51.526Z,19.67
2018-09-20T23:34:21.386Z,19.68
2018-09-20T23:36:50.692Z,19.66
2018-09-20T23:39:20.176Z,19.71
2018-09-20T23:41:49.870Z,19.62
2018-09-20T23:44:19.271Z,19.61
2018-09-20T23:46:49.821Z,19.60
2018-09-20T23:49:19.335Z,19.56
2018-09-20T23:51:49.245Z,19.46
2018-09-20T23:54:18.107Z,19.49
2018-09-20T23:56:47.625Z,19.38
2018-09-20T23:59:17.822Z,19.33
